Weather History for Allentown, PA

Change the Weather History Date:

Sunday, March 9, 2014

  Actual Average (KABE) Record (KABE)
Temperature  
Mean Temperature 37 °F 37 °F  
Max Temperature 41 °F 47 °F 70 °F (2000)
Min Temperature 33 °F 27 °F 7 °F (1960)
Degree Days  
Heating Degree Days 28 28  
Month to date heating degree days 267  
Since 1 July heating degree days 4576  
Cooling Degree Days 0 0  
Month to date cooling degree days 0  
Year to date cooling degree days 0  
Moisture  
Dew Point 16 °F    
Average Humidity 45    
Maximum Humidity 70    
Minimum Humidity 24    
Precipitation  
Precipitation 0.00 in 0.10 in 1.35 in (1998)
Month to date precipitation 0.90  
Year to date precipitation 6.63  
Snow  
Snow 0.00 in 0.30 in 6.60 in (1976)
Month to date snowfall 2.1  
Since 1 July snowfall 29.1  
Snow Depth -    
Sea Level Pressure  
Sea Level Pressure 30.00 in    
Wind  
Wind Speed 8 mph (WNW)    
Max Wind Speed 15 mph    
Max Gust Speed 21 mph    
Visibility 10 miles    
Events      
T = Trace of Precipitation, MM = Missing Value Source: NWS Daily Summary

Daily Weather History Graph

Daily Weather History Graph

Search for Another Location

Airport:

Trip Planner

Search our weather history database for the weather conditions in past years. The results will help you decide how hot, cold, wet, or windy it might be!

Date:

Astronomy

Mar. 09, 2014 Rise Set
Actual Time 7:23 AM EDT 7:02 PM EDT
Civil Twilight 6:56 AM EDT 7:29 PM EDT
Nautical Twilight 6:24 AM EDT 8:01 PM EDT
Astronomical Twilight 5:52 AM EDT 8:33 PM EDT
Moon 12:51 PM EDT (3/9) 3:48 AM EDT (3/9)
Length of Visible Light 12h 33m
Length of Day
11h 38m
First Quarter, 61% of the Moon is Illuminated
Mar 9
First Quarter
Mar 16
Full
Mar 23
Last Quarter
Mar 30
New
Apr 7
First Quarter

Hourly Weather History & Observations

Time (EDT) Temp. Windchill Dew Point Humidity Pressure Visibility Wind Dir Wind Speed Gust Speed Precip Events Conditions
12:15 AM 41.0 °F 36.4 °F 28.4 °F 61% 29.92 in 10.0 mi NNW 6.9 mph - N/A   Overcast
12:35 AM 41.0 °F 35.8 °F 26.6 °F 57% 29.93 in 10.0 mi North 8.1 mph - N/A   Mostly Cloudy
12:55 AM 39.2 °F 33.6 °F 28.4 °F 65% 29.93 in 10.0 mi NNW 8.1 mph - N/A   Mostly Cloudy
1:15 AM 37.4 °F 33.8 °F 28.4 °F 70% 29.93 in 7.0 mi NNW 4.6 mph - N/A   Light Drizzle
1:35 AM 37.4 °F 31.4 °F 28.4 °F 70% 29.94 in 7.0 mi North 8.1 mph - N/A   Light Drizzle
1:55 AM 37.4 °F 32.1 °F 28.4 °F 70% 29.94 in 7.0 mi NNW 6.9 mph - N/A   Overcast
3:15 AM 37.4 °F 32.1 °F 28.4 °F 70% 29.94 in 7.0 mi NNW 6.9 mph - N/A   Overcast
3:35 AM 37.4 °F 32.1 °F 28.4 °F 70% 29.93 in 7.0 mi NNW 6.9 mph - N/A   Overcast
3:55 AM 37.4 °F 32.8 °F 28.4 °F 70% 29.93 in 7.0 mi NNW 5.8 mph - N/A   Overcast
4:15 AM 37.4 °F 32.8 °F 28.4 °F 70% 29.94 in 7.0 mi NNW 5.8 mph - N/A   Overcast
4:35 AM 37.4 °F 31.4 °F 28.4 °F 70% 29.94 in 7.0 mi NNW 8.1 mph - N/A   Overcast
4:55 AM 37.4 °F 32.1 °F 26.6 °F 65% 29.95 in 7.0 mi NNW 6.9 mph - N/A   Overcast
5:15 AM 37.4 °F 33.8 °F 26.6 °F 65% 29.95 in 7.0 mi NNW 4.6 mph - N/A   Overcast
5:35 AM 37.4 °F 32.8 °F 26.6 °F 65% 29.96 in 10.0 mi NNW 5.8 mph - N/A   Overcast
5:55 AM 37.4 °F 30.3 °F 24.8 °F 60% 29.97 in 10.0 mi NNW 10.4 mph - N/A   Overcast
6:15 AM 35.6 °F 29.2 °F 23.0 °F 60% 29.97 in 10.0 mi North 8.1 mph - N/A   Overcast
6:35 AM 35.6 °F 29.9 °F 23.0 °F 60% 29.98 in 10.0 mi NNW 6.9 mph - N/A   Overcast
6:55 AM 35.6 °F 29.9 °F 23.0 °F 60% 29.99 in 10.0 mi NNW 6.9 mph - N/A   Overcast
7:15 AM 35.6 °F 28.0 °F 21.2 °F 56% 29.99 in 10.0 mi North 10.4 mph 17.3 mph N/A   Overcast
7:35 AM 35.6 °F 30.7 °F 19.4 °F 52% 30.00 in 10.0 mi NNW 5.8 mph - N/A   Overcast
7:55 AM 35.6 °F 28.6 °F 17.6 °F 48% 30.01 in 10.0 mi NNW 9.2 mph - N/A   Overcast
8:15 AM 35.6 °F 28.6 °F 15.8 °F 44% 30.02 in 10.0 mi NW 9.2 mph 18.4 mph N/A   Scattered Clouds
8:30 AM 35.6 °F 28.6 °F 14.0 °F 41% 30.02 in 10.0 mi NW 9.2 mph - N/A   Clear
8:55 AM 35.6 °F 27.1 °F 14.0 °F 41% 30.04 in 10.0 mi NW 12.7 mph - N/A   Clear
9:15 AM 35.6 °F 28.6 °F 14.0 °F 41% 30.04 in 10.0 mi NW 9.2 mph - N/A   Scattered Clouds
9:35 AM 35.6 °F 28.0 °F 14.0 °F 41% 30.05 in 10.0 mi NW 10.4 mph - N/A   Overcast
9:55 AM 35.6 °F 27.1 °F 14.0 °F 41% 30.06 in 10.0 mi WNW 12.7 mph 16.1 mph N/A   Overcast
10:15 AM 35.6 °F 26.2 °F 14.0 °F 41% 30.05 in 10.0 mi NW 15.0 mph 19.6 mph N/A   Mostly Cloudy
10:35 AM 35.6 °F 26.2 °F 14.0 °F 41% 30.06 in 10.0 mi NW 15.0 mph 19.6 mph N/A   Scattered Clouds
10:55 AM 35.6 °F 28.0 °F 14.0 °F 41% 30.07 in 10.0 mi WNW 10.4 mph 17.3 mph N/A   Clear
11:15 AM 37.4 °F 32.1 °F 14.0 °F 38% 30.07 in 10.0 mi WNW 6.9 mph 18.4 mph N/A   Scattered Clouds
11:35 AM 37.4 °F 30.3 °F 14.0 °F 38% 30.07 in 10.0 mi NW 10.4 mph - N/A   Overcast
11:55 AM 37.4 °F 30.3 °F 14.0 °F 38% 30.06 in 10.0 mi NW 10.4 mph - N/A   Overcast
12:15 PM 37.4 °F 32.1 °F 14.0 °F 38% 30.06 in 10.0 mi WNW 6.9 mph - N/A   Mostly Cloudy
12:35 PM 37.4 °F 31.4 °F 12.2 °F 36% 30.07 in 10.0 mi West 8.1 mph 16.1 mph N/A   Mostly Cloudy
12:55 PM 37.4 °F 30.3 °F 14.0 °F 38% 30.06 in 10.0 mi WNW 10.4 mph 17.3 mph N/A   Scattered Clouds
1:10 PM 37.4 °F 30.3 °F 12.2 °F 36% 30.06 in 10.0 mi NW 10.4 mph 16.1 mph N/A   Clear
1:35 PM 37.4 °F 30.3 °F 12.2 °F 36% 30.05 in 10.0 mi West 10.4 mph 17.3 mph N/A   Clear
1:55 PM 37.4 °F 30.3 °F 10.4 °F 33% 30.05 in 10.0 mi West 10.4 mph 17.3 mph N/A   Clear
2:15 PM 39.2 °F 32.5 °F 10.4 °F 31% 30.04 in 10.0 mi West 10.4 mph 16.1 mph N/A   Clear
2:35 PM 39.2 °F 32.5 °F 8.6 °F 28% 30.03 in 10.0 mi West 10.4 mph 20.7 mph N/A   Clear
2:55 PM 39.2 °F 32.0 °F 8.6 °F 28% 30.03 in 10.0 mi West 11.5 mph 18.4 mph N/A   Clear
3:15 PM 41.0 °F 35.2 °F 10.4 °F 29% 30.02 in 10.0 mi West 9.2 mph - N/A   Clear
3:35 PM 41.0 °F 34.7 °F 10.4 °F 29% 30.02 in 10.0 mi West 10.4 mph - N/A   Clear
3:55 PM 39.2 °F 33.0 °F 10.4 °F 31% 30.01 in 10.0 mi WSW 9.2 mph - N/A   Clear
4:15 PM 41.0 °F 34.7 °F 10.4 °F 29% 30.00 in 10.0 mi WSW 10.4 mph - N/A   Clear
4:35 PM 39.2 °F 32.0 °F 8.6 °F 28% 30.00 in 10.0 mi West 11.5 mph 16.1 mph N/A   Clear
4:55 PM 39.2 °F 32.5 °F 8.6 °F 28% 30.00 in 10.0 mi West 10.4 mph 16.1 mph N/A   Clear
5:15 PM 39.2 °F 33.6 °F 6.8 °F 26% 29.99 in 10.0 mi West 8.1 mph 17.3 mph N/A   Clear
5:35 PM 39.2 °F 33.0 °F 6.8 °F 26% 30.00 in 10.0 mi West 9.2 mph - N/A   Clear
5:55 PM 39.2 °F 34.2 °F 6.8 °F 26% 29.99 in 10.0 mi West 6.9 mph - N/A   Clear
6:15 PM 39.2 °F 35.0 °F 5.0 °F 24% 29.99 in 10.0 mi West 5.8 mph - N/A   Clear
6:35 PM 37.4 °F 32.1 °F 8.6 °F 30% 29.99 in 10.0 mi WSW 6.9 mph - N/A   Clear
6:55 PM 37.4 °F 31.4 °F 12.2 °F 36% 30.00 in 10.0 mi WSW 8.1 mph - N/A   Clear
7:15 PM 37.4 °F 32.8 °F 12.2 °F 36% 30.00 in 10.0 mi WSW 5.8 mph - N/A   Clear
7:35 PM 37.4 °F 32.8 °F 12.2 °F 36% 30.01 in 10.0 mi WSW 5.8 mph - N/A   Clear
7:55 PM 35.6 °F 31.7 °F 12.2 °F 38% 30.01 in 10.0 mi West 4.6 mph - N/A   Clear
8:15 PM 37.4 °F 32.8 °F 12.2 °F 36% 30.01 in 10.0 mi WSW 5.8 mph - N/A   Clear
8:35 PM 35.6 °F 30.7 °F 12.2 °F 38% 30.01 in 10.0 mi WSW 5.8 mph - N/A   Clear
8:55 PM 35.6 °F 30.7 °F 12.2 °F 38% 30.01 in 10.0 mi WSW 5.8 mph - N/A   Clear
9:15 PM 35.6 °F 29.9 °F 12.2 °F 38% 30.01 in 10.0 mi WSW 6.9 mph - N/A   Clear
9:35 PM 35.6 °F 30.7 °F 14.0 °F 41% 30.01 in 10.0 mi SW 5.8 mph - N/A   Scattered Clouds
9:55 PM 33.8 °F 27.7 °F 17.6 °F 52% 30.01 in 10.0 mi SW 6.9 mph - N/A   Clear
10:15 PM 33.8 °F 27.7 °F 17.6 °F 52% 30.01 in 10.0 mi SW 6.9 mph - N/A   Clear
10:35 PM 33.8 °F 27.7 °F 17.6 °F 52% 30.00 in 10.0 mi SW 6.9 mph - N/A   Scattered Clouds
10:55 PM 33.8 °F 27.7 °F 17.6 °F 52% 29.99 in 10.0 mi SW 6.9 mph - N/A   Mostly Cloudy
11:15 PM 33.8 °F 27.0 °F 15.8 °F 48% 29.99 in 10.0 mi SW 8.1 mph - N/A   Overcast
11:35 PM 33.8 °F 28.6 °F 15.8 °F 48% 29.98 in 10.0 mi WSW 5.8 mph - N/A   Scattered Clouds
11:55 PM 33.8 °F 27.7 °F 14.0 °F 44% 29.97 in 10.0 mi WSW 6.9 mph - N/A   Clear
12:15 AM 33.8 °F 27.7 °F 15.8 °F 48% 29.96 in 10.0 mi SW 6.9 mph - N/A   Clear
12:35 AM 33.8 °F 29.6 °F 14.0 °F 44% 29.96 in 10.0 mi WSW 4.6 mph - N/A   Scattered Clouds
12:55 AM 33.8 °F 28.6 °F 15.8 °F 48% 29.95 in 10.0 mi SW 5.8 mph - N/A   Scattered Clouds